Time;durP1;ratioP1;P1;durP2;ratioP2;P2;SDS_P1;SDS_P2;PMS_P1;PMS_P2;Temp;Humidity;BMP_temperature;BMP_pressure;BME280_temperature;BME280_humidity;BME280_pressure;Samples;Min_cycle;Max_cycle;Signal;HPM_P1;HPM_P2
2021/04/04 00:02:52;;;;;;;3.43;2.50;;;2.50;99.90;;;;;;6240144;28;20281;-68
2021/04/04 00:05:54;;;;;;;2.93;2.63;;;2.50;99.90;;;;;;6231095;28;20318;-68
2021/04/04 00:08:56;;;;;;;5.67;2.73;;;2.40;99.90;;;;;;6230403;28;20372;-68
2021/04/04 00:11:58;;;;;;;4.80;2.60;;;2.50;99.90;;;;;;6231062;28;20341;-68
2021/04/04 00:15:00;;;;;;;3.37;2.50;;;2.50;99.90;;;;;;6233644;28;20238;-68
2021/04/04 00:18:02;;;;;;;6.50;3.07;;;2.50;99.90;;;;;;6253262;28;20305;-68
2021/04/04 00:21:04;;;;;;;3.03;2.27;;;2.50;99.90;;;;;;6256138;28;20211;-67
2021/04/04 00:24:09;;;;;;;5.13;2.73;;;2.50;99.90;;;;;;6254573;28;20679;-67
2021/04/04 00:27:11;;;;;;;3.40;2.67;;;2.50;99.90;;;;;;6255627;28;20280;-68
2021/04/04 00:30:16;;;;;;;5.87;2.70;;;2.50;99.90;;;;;;6259104;28;20321;-68
2021/04/04 00:33:18;;;;;;;4.03;2.67;;;2.50;99.90;;;;;;6260775;28;20219;-68
2021/04/04 00:36:20;;;;;;;4.53;2.60;;;2.40;99.90;;;;;;6259641;28;20719;-68
2021/04/04 00:39:22;;;;;;;6.73;2.67;;;2.40;99.90;;;;;;6261363;28;20227;-67
2021/04/04 00:42:24;;;;;;;3.03;2.23;;;2.40;99.90;;;;;;6259816;28;20229;-67
2021/04/04 00:45:29;;;;;;;5.80;2.70;;;2.30;99.90;;;;;;6259938;28;20298;-67
2021/04/04 00:48:31;;;;;;;5.77;2.80;;;2.30;99.90;;;;;;6260284;28;20238;-67
2021/04/04 00:51:33;;;;;;;4.40;2.47;;;2.20;99.90;;;;;;6260215;28;20250;-67
2021/04/04 00:54:38;;;;;;;5.40;2.60;;;2.20;99.90;;;;;;6243848;28;20230;-67
2021/04/04 00:57:41;;;;;;;4.70;2.60;;;2.20;99.90;;;;;;6258719;28;20227;-67
2021/04/04 01:00:43;;;;;;;5.00;2.53;;;2.20;99.90;;;;;;6264831;28;20222;-67
2021/04/04 01:03:45;;;;;;;4.20;3.20;;;2.20;99.90;;;;;;6264343;28;20310;-67
2021/04/04 01:06:46;;;;;;;4.00;2.83;;;2.20;99.90;;;;;;6265507;28;20364;-67
2021/04/04 01:09:49;;;;;;;3.07;2.67;;;2.20;99.90;;;;;;6263773;28;20256;-67
2021/04/04 01:13:12;;;;;;;3.20;2.30;;;2.30;99.90;;;;;;6264956;28;20231;-67
2021/04/04 01:16:22;;;;;;;4.33;3.20;;;2.20;99.90;;;;;;6259552;28;20314;-67
2021/04/04 01:19:45;;;;;;;3.33;2.63;;;2.30;99.90;;;;;;6258706;28;20238;-67
2021/04/04 01:23:03;;;;;;;2.93;2.23;;;2.30;99.90;;;;;;6259672;28;20234;-67
2021/04/04 01:26:19;;;;;;;3.00;2.40;;;2.30;99.90;;;;;;6258883;28;20241;-68
2021/04/04 01:29:23;;;;;;;3.63;2.70;;;2.40;99.90;;;;;;6258461;28;20247;-67
2021/04/04 01:32:25;;;;;;;2.50;2.30;;;2.40;99.90;;;;;;6259690;28;20223;-68
2021/04/04 01:35:31;;;;;;;3.70;2.53;;;2.40;99.90;;;;;;6260811;28;20284;-68
2021/04/04 01:38:37;;;;;;;2.50;2.30;;;2.50;99.90;;;;;;6259119;28;20242;-68
2021/04/04 01:41:42;;;;;;;2.57;2.30;;;2.50;99.90;;;;;;6256035;28;20227;-68
2021/04/04 01:44:47;;;;;;;2.53;2.07;;;2.60;99.90;;;;;;6259635;28;20239;-68
2021/04/04 01:47:50;;;;;;;3.00;2.60;;;2.70;99.90;;;;;;6232809;28;20600;-68
2021/04/04 01:50:52;;;;;;;4.97;2.87;;;2.70;99.90;;;;;;6234974;28;20258;-68
2021/04/04 01:53:58;;;;;;;3.30;2.33;;;2.70;99.90;;;;;;6234204;28;20228;-68
2021/04/04 01:57:01;;;;;;;5.63;2.70;;;2.70;99.90;;;;;;6233812;28;20232;-68
2021/04/04 02:00:11;;;;;;;4.30;3.10;;;2.70;99.90;;;;;;6234491;28;20224;-68
2021/04/04 02:03:14;;;;;;;4.43;3.43;;;2.70;99.90;;;;;;6255914;28;20271;-68
2021/04/04 02:06:17;;;;;;;3.60;2.63;;;2.70;99.90;;;;;;6258813;28;20237;-68
2021/04/04 02:09:19;;;;;;;3.17;2.87;;;2.70;99.90;;;;;;6257847;28;20599;-68
2021/04/04 02:12:22;;;;;;;3.03;2.33;;;2.70;99.90;;;;;;6257056;28;20219;-68
2021/04/04 02:15:27;;;;;;;3.07;2.60;;;2.70;99.90;;;;;;6257800;28;20688;-68
2021/04/04 02:18:29;;;;;;;4.77;2.67;;;2.70;99.90;;;;;;6264094;28;20219;-68
2021/04/04 02:21:34;;;;;;;4.13;3.17;;;2.70;99.90;;;;;;6258244;28;20223;-68
2021/04/04 02:24:36;;;;;;;3.63;2.77;;;2.70;99.90;;;;;;6257740;28;20226;-68
2021/04/04 02:27:46;;;;;;;3.30;3.00;;;2.70;99.90;;;;;;6258160;28;20229;-68
2021/04/04 02:30:48;;;;;;;3.63;3.07;;;2.70;99.90;;;;;;6257958;28;20231;-68
2021/04/04 02:33:55;;;;;;;4.77;3.30;;;2.70;99.90;;;;;;6256467;28;20298;-68
2021/04/04 02:36:57;;;;;;;3.57;3.13;;;2.70;99.90;;;;;;6257358;28;20696;-68
2021/04/04 02:40:06;;;;;;;4.00;3.20;;;2.70;99.90;;;;;;6255557;28;20716;-68
2021/04/04 02:43:14;;;;;;;4.43;3.83;;;2.70;99.90;;;;;;6258361;28;20238;-68
2021/04/04 02:46:20;;;;;;;8.60;3.87;;;2.70;99.90;;;;;;6257315;28;20261;-68
2021/04/04 02:49:28;;;;;;;4.63;3.07;;;2.70;99.90;;;;;;6255910;28;20256;-68
2021/04/04 02:52:34;;;;;;;4.33;3.33;;;2.70;99.90;;;;;;6257091;28;20235;-68
2021/04/04 02:55:37;;;;;;;4.00;3.37;;;2.70;99.90;;;;;;6257477;28;20227;-68
2021/04/04 02:58:42;;;;;;;6.30;3.40;;;2.70;99.90;;;;;;6255740;28;20235;-68
2021/04/04 03:01:45;;;;;;;5.00;3.73;;;2.70;99.90;;;;;;6256610;28;20227;-68
2021/04/04 03:04:49;;;;;;;5.03;3.40;;;2.70;99.90;;;;;;6257706;28;20726;-68
2021/04/04 03:07:53;;;;;;;3.70;3.37;;;2.70;99.90;;;;;;6257342;28;20224;-69
2021/04/04 03:10:56;;;;;;;4.10;3.30;;;2.70;99.90;;;;;;6256851;28;20639;-68
2021/04/04 03:13:59;;;;;;;3.87;3.00;;;2.80;99.90;;;;;;6257833;28;20239;-68
2021/04/04 03:17:03;;;;;;;4.07;3.07;;;2.80;99.90;;;;;;6260755;28;20239;-68
2021/04/04 03:20:07;;;;;;;4.40;3.23;;;2.80;99.90;;;;;;6255803;28;20265;-68
2021/04/04 03:23:10;;;;;;;3.60;2.97;;;2.80;99.90;;;;;;6256590;28;20235;-68
2021/04/04 03:26:13;;;;;;;3.17;2.73;;;2.80;99.90;;;;;;6256148;28;20643;-68
2021/04/04 03:29:16;;;;;;;3.60;2.80;;;2.80;99.90;;;;;;6256511;28;20431;-68
2021/04/04 03:32:19;;;;;;;3.60;2.93;;;2.80;99.90;;;;;;6256089;28;20223;-68
2021/04/04 03:35:21;;;;;;;4.30;2.97;;;2.90;99.90;;;;;;6255024;28;20223;-68
2021/04/04 03:38:26;;;;;;;3.30;2.80;;;2.90;99.90;;;;;;6254627;28;20227;-68
2021/04/04 03:41:30;;;;;;;4.03;2.93;;;2.90;99.90;;;;;;6256286;28;20225;-68
2021/04/04 03:44:37;;;;;;;3.50;2.80;;;2.90;99.90;;;;;;6256816;28;20230;-68
2021/04/04 03:47:39;;;;;;;4.27;3.27;;;2.90;99.90;;;;;;6256995;28;20240;-68
2021/04/04 03:50:46;;;;;;;6.03;3.17;;;3.00;99.90;;;;;;6256519;28;20296;-68
2021/04/04 03:53:50;;;;;;;3.50;3.10;;;3.00;99.90;;;;;;6254904;28;20314;-68
2021/04/04 03:56:53;;;;;;;3.90;2.80;;;3.00;99.90;;;;;;6254034;28;20227;-68
2021/04/04 03:59:56;;;;;;;3.33;2.90;;;3.00;99.90;;;;;;6255821;28;20231;-68
2021/04/04 04:03:00;;;;;;;6.60;3.03;;;3.00;99.90;;;;;;6255906;28;20336;-68
2021/04/04 04:06:02;;;;;;;3.17;2.87;;;3.10;99.90;;;;;;6255439;28;20590;-68
2021/04/04 04:09:06;;;;;;;3.47;2.97;;;3.10;99.90;;;;;;6255556;28;20231;-68
2021/04/04 04:12:09;;;;;;;3.93;3.30;;;3.00;99.90;;;;;;6255360;28;20209;-68
2021/04/04 04:15:15;;;;;;;3.70;2.90;;;3.00;99.90;;;;;;6255539;28;20270;-68
2021/04/04 04:18:18;;;;;;;4.57;3.00;;;3.10;99.90;;;;;;6255810;28;20214;-68
2021/04/04 04:21:21;;;;;;;3.53;3.13;;;3.00;99.90;;;;;;6255803;28;20365;-68
2021/04/04 04:24:24;;;;;;;4.70;3.00;;;3.00;99.90;;;;;;6255414;28;20218;-68
2021/04/04 04:27:27;;;;;;;3.77;3.20;;;3.00;99.90;;;;;;6255931;28;20235;-68
2021/04/04 04:30:29;;;;;;;3.77;2.97;;;3.00;99.90;;;;;;6254345;28;20711;-68
2021/04/04 04:33:31;;;;;;;4.00;3.40;;;3.00;99.90;;;;;;6255719;28;20310;-68
2021/04/04 04:36:35;;;;;;;3.47;2.60;;;3.00;99.90;;;;;;6254480;28;20334;-68
2021/04/04 04:39:38;;;;;;;4.17;3.40;;;3.00;99.90;;;;;;6255457;28;20233;-68
2021/04/04 04:42:42;;;;;;;3.77;3.20;;;3.00;99.90;;;;;;6255174;28;20218;-68
2021/04/04 04:45:45;;;;;;;4.03;3.30;;;3.00;99.90;;;;;;6254622;28;20222;-68
2021/04/04 04:48:47;;;;;;;3.33;3.00;;;3.00;99.90;;;;;;6255231;28;20704;-68
2021/04/04 04:51:50;;;;;;;5.13;3.37;;;3.00;99.90;;;;;;6255997;28;20235;-68
2021/04/04 04:54:52;;;;;;;4.37;2.80;;;3.00;99.90;;;;;;6255654;28;20219;-68
2021/04/04 04:57:55;;;;;;;6.33;3.50;;;3.00;99.90;;;;;;6255396;28;20705;-68
2021/04/04 05:01:02;;;;;;;5.77;3.13;;;3.00;99.90;;;;;;6258522;28;20231;-69
2021/04/04 05:04:04;;;;;;;3.67;2.80;;;3.00;99.90;;;;;;6253423;28;20232;-69
2021/04/04 05:07:06;;;;;;;3.30;3.00;;;3.10;99.90;;;;;;6254995;28;20245;-69
2021/04/04 05:10:10;;;;;;;3.50;3.20;;;3.10;99.90;;;;;;6253600;28;20242;-69
2021/04/04 05:13:13;;;;;;;3.47;3.17;;;3.00;99.90;;;;;;6254392;28;20239;-69
2021/04/04 05:16:16;;;;;;;4.10;3.37;;;3.10;99.90;;;;;;6258948;28;20234;-69
2021/04/04 05:19:18;;;;;;;5.17;3.20;;;3.00;99.90;;;;;;6259829;28;20234;-69
2021/04/04 05:22:20;;;;;;;4.33;3.10;;;3.00;99.90;;;;;;6259817;28;20284;-69
2021/04/04 05:25:22;;;;;;;3.50;3.10;;;3.10;99.90;;;;;;6259162;28;20337;-69
2021/04/04 05:28:25;;;;;;;4.10;3.33;;;3.10;99.90;;;;;;6257291;28;20223;-69
2021/04/04 05:31:28;;;;;;;5.23;3.07;;;3.10;99.90;;;;;;6257430;28;20683;-69
2021/04/04 05:34:30;;;;;;;3.13;2.60;;;3.10;99.90;;;;;;6260520;28;20239;-69
2021/04/04 05:37:32;;;;;;;5.50;3.03;;;3.10;99.90;;;;;;6258117;28;20226;-68
2021/04/04 05:40:34;;;;;;;3.20;2.90;;;3.10;99.90;;;;;;6259308;28;20230;-68
2021/04/04 05:43:41;;;;;;;4.87;3.10;;;3.10;99.90;;;;;;6257503;28;20702;-68
2021/04/04 05:46:46;;;;;;;3.57;3.00;;;3.10;99.90;;;;;;6260440;28;20227;-69
2021/04/04 05:49:50;;;;;;;3.80;3.07;;;3.10;99.90;;;;;;6259785;28;20231;-69
2021/04/04 05:52:59;;;;;;;3.83;2.63;;;3.20;99.90;;;;;;6256528;28;20310;-68
2021/04/04 05:56:21;;;;;;;3.90;3.50;;;3.10;99.90;;;;;;6258846;28;20250;-68
2021/04/04 05:59:45;;;;;;;6.53;3.10;;;3.20;99.90;;;;;;6259165;28;20241;-68
2021/04/04 06:02:55;;;;;;;5.40;3.60;;;3.20;99.90;;;;;;6260182;28;20768;-68
2021/04/04 06:06:28;;;;;;;3.63;3.33;;;3.20;99.90;;;;;;6259217;28;20238;-68
2021/04/04 06:09:30;;;;;;;3.80;3.10;;;3.30;99.90;;;;;;6233673;28;20232;-68
2021/04/04 06:12:35;;;;;;;4.00;3.00;;;3.30;99.90;;;;;;6236457;28;20231;-68
2021/04/04 06:15:56;;;;;;;3.77;2.90;;;3.40;99.90;;;;;;6240352;28;20230;-68
2021/04/04 06:19:14;;;;;;;5.00;3.40;;;3.50;99.90;;;;;;6258339;28;20239;-68
2021/04/04 06:22:31;;;;;;;3.93;3.30;;;3.50;99.90;;;;;;6258112;28;20716;-68
2021/04/04 06:26:05;;;;;;;3.93;3.10;;;3.60;99.90;;;;;;6257662;28;20231;-68
2021/04/04 06:29:30;;;;;;;3.70;3.00;;;3.60;99.90;;;;;;6255998;28;20604;-69
2021/04/04 06:32:42;;;;;;;4.13;3.10;;;3.70;99.90;;;;;;6258115;28;20314;-69
2021/04/04 06:36:03;;;;;;;5.60;3.53;;;3.70;99.90;;;;;;6262059;28;20284;-69
2021/04/04 06:39:27;;;;;;;3.77;3.00;;;3.80;99.90;;;;;;6256779;28;20231;-68
2021/04/04 06:42:56;;;;;;;3.33;2.87;;;3.80;99.90;;;;;;6258034;28;20215;-68
2021/04/04 06:46:13;;;;;;;4.90;3.13;;;3.90;99.90;;;;;;6256932;28;20356;-68
2021/04/04 06:49:42;;;;;;;3.93;3.17;;;3.90;99.90;;;;;;6258735;28;20419;-68
2021/04/04 06:53:09;;;;;;;3.40;3.10;;;4.10;99.90;;;;;;6256712;28;20766;-69
2021/04/04 06:56:53;;;;;;;3.90;3.27;;;4.20;99.90;;;;;;6258594;28;20239;-69
2021/04/04 07:00:06;;;;;;;4.13;3.27;;;4.30;99.90;;;;;;6240088;28;20602;-69
2021/04/04 07:03:09;;;;;;;6.00;3.23;;;4.30;99.90;;;;;;6257367;28;20224;-69
2021/04/04 07:06:26;;;;;;;3.50;3.20;;;4.40;99.90;;;;;;6255124;28;20220;-69
2021/04/04 07:09:40;;;;;;;5.30;3.63;;;4.60;99.90;;;;;;6256787;28;20234;-69
2021/04/04 07:13:09;;;;;;;4.53;3.37;;;4.80;99.90;;;;;;6257656;28;20279;-69
2021/04/04 07:16:44;;;;;;;3.27;2.97;;;4.90;99.90;;;;;;6257668;28;20705;-69
2021/04/04 07:20:13;;;;;;;4.10;2.77;;;5.00;99.90;;;;;;6257254;28;20327;-69
2021/04/04 07:23:39;;;;;;;5.47;3.83;;;5.20;99.90;;;;;;6257444;28;20281;-69
2021/04/04 07:26:46;;;;;;;5.47;3.70;;;5.30;99.90;;;;;;6256308;28;20243;-69
2021/04/04 07:30:02;;;;;;;4.70;3.60;;;5.20;99.90;;;;;;6257236;28;20233;-69
2021/04/04 07:33:16;;;;;;;4.10;3.60;;;5.20;99.90;;;;;;6256702;28;20697;-69
2021/04/04 07:36:27;;;;;;;6.53;3.20;;;5.10;99.90;;;;;;6254781;28;20204;-70
2021/04/04 07:39:32;;;;;;;4.27;3.37;;;5.00;99.90;;;;;;6255996;28;20328;-70
2021/04/04 07:42:36;;;;;;;4.33;3.33;;;5.10;99.90;;;;;;6254442;28;20590;-70
2021/04/04 07:45:48;;;;;;;3.80;3.27;;;5.20;99.90;;;;;;6257552;28;20228;-69
2021/04/04 07:49:03;;;;;;;3.80;3.40;;;5.30;99.90;;;;;;6257803;28;20236;-69
2021/04/04 07:52:15;;;;;;;4.03;3.30;;;5.40;99.90;;;;;;6255537;28;20287;-69
2021/04/04 07:55:30;;;;;;;3.80;3.43;;;5.50;99.90;;;;;;6253868;28;20777;-69
2021/04/04 07:58:37;;;;;;;3.93;3.53;;;5.50;99.90;;;;;;6254700;28;20231;-69
2021/04/04 08:02:00;;;;;;;4.27;3.40;;;5.70;99.90;;;;;;6255719;28;20234;-69
2021/04/04 08:05:08;;;;;;;4.20;3.43;;;5.60;99.90;;;;;;6256070;28;20311;-69
2021/04/04 08:08:33;;;;;;;3.90;3.00;;;5.70;99.90;;;;;;6256331;28;20371;-69
2021/04/04 08:11:57;;;;;;;4.50;3.20;;;5.80;99.90;;;;;;6256065;28;20652;-70
2021/04/04 08:15:15;;;;;;;3.37;2.83;;;5.90;99.90;;;;;;6254769;28;20286;-70
2021/04/04 08:18:17;;;;;;;4.30;3.03;;;6.00;99.90;;;;;;6255702;28;20271;-70
2021/04/04 08:21:32;;;;;;;4.13;3.30;;;6.00;99.90;;;;;;6256144;28;20737;-69
2021/04/04 08:25:09;;;;;;;5.03;3.53;;;6.20;99.90;;;;;;6255826;28;20222;-69
2021/04/04 08:28:18;;;;;;;5.17;3.80;;;6.30;99.90;;;;;;6255260;28;20684;-69
2021/04/04 08:31:59;;;;;;;4.97;3.77;;;6.60;99.90;;;;;;6254271;28;20291;-69
2021/04/04 08:35:02;;;;;;;4.17;3.30;;;6.80;99.90;;;;;;6254641;28;20261;-69
2021/04/04 08:38:09;;;;;;;3.00;2.70;;;7.00;99.90;;;;;;6254533;28;20230;-69
2021/04/04 08:41:13;;;;;;;5.10;3.20;;;7.10;99.90;;;;;;6256588;28;20315;-69
2021/04/04 08:45:02;;;;;;;3.87;2.80;;;7.10;99.90;;;;;;6256075;28;20231;-69
2021/04/04 08:48:06;;;;;;;3.87;3.23;;;7.10;99.90;;;;;;6232096;28;20350;-69
2021/04/04 08:51:12;;;;;;;4.30;3.40;;;7.10;99.90;;;;;;6234156;28;20314;-69
2021/04/04 08:54:19;;;;;;;3.27;2.93;;;7.10;99.90;;;;;;6235017;28;20360;-69
2021/04/04 08:57:45;;;;;;;4.30;3.43;;;7.20;99.90;;;;;;6234835;28;20676;-69
2021/04/04 09:00:55;;;;;;;3.37;3.00;;;7.40;99.90;;;;;;6236072;28;20732;-69
2021/04/04 09:03:59;;;;;;;3.30;3.00;;;7.70;99.90;;;;;;6258964;28;20230;-69
2021/04/04 09:07:04;;;;;;;3.23;2.93;;;7.90;99.90;;;;;;6259735;28;20342;-69
2021/04/04 09:10:09;;;;;;;3.40;2.97;;;8.00;99.90;;;;;;6259819;28;20288;-69
2021/04/04 09:13:14;;;;;;;3.50;2.77;;;8.10;99.90;;;;;;6260679;28;20259;-69
2021/04/04 09:16:16;;;;;;;3.07;2.63;;;8.20;99.70;;;;;;6260204;28;20613;-69
2021/04/04 09:19:29;;;;;;;5.40;2.77;;;8.10;96.80;;;;;;6258929;28;20219;-69
2021/04/04 09:22:32;;;;;;;4.70;3.07;;;8.10;98.50;;;;;;6260756;28;20595;-69
2021/04/04 09:25:36;;;;;;;3.20;2.90;;;8.20;97.90;;;;;;6259520;28;20245;-69
2021/04/04 09:28:41;;;;;;;3.03;2.73;;;8.30;97.00;;;;;;6260156;28;20245;-69
2021/04/04 09:31:50;;;;;;;3.33;2.83;;;8.30;97.10;;;;;;6259839;28;20231;-69
2021/04/04 09:34:53;;;;;;;2.93;2.63;;;8.40;96.60;;;;;;6258183;28;20223;-69
2021/04/04 09:38:02;;;;;;;3.37;2.77;;;8.50;95.40;;;;;;6258591;28;20257;-69
2021/04/04 09:41:05;;;;;;;3.37;2.63;;;8.30;93.90;;;;;;6257101;28;20227;-69
2021/04/04 09:44:08;;;;;;;4.57;2.70;;;8.30;94.60;;;;;;6258061;28;20313;-69
2021/04/04 09:47:10;;;;;;;4.27;2.73;;;8.30;94.90;;;;;;6259629;28;20227;-69
2021/04/04 09:50:25;;;;;;;3.33;1.83;;;8.70;94.60;;;;;;6258528;28;20262;-69
2021/04/04 09:53:40;;;;;;;2.00;1.80;;;9.10;92.20;;;;;;6263663;28;20687;-69
2021/04/04 09:56:44;;;;;;;1.80;1.70;;;9.10;88.60;;;;;;6258952;28;20236;-69
2021/04/04 09:59:46;;;;;;;2.10;1.90;;;9.30;90.70;;;;;;6258837;28;20276;-69
2021/04/04 10:02:51;;;;;;;2.10;1.70;;;9.40;83.40;;;;;;6239811;28;20224;-69
2021/04/04 10:05:53;;;;;;;1.90;1.70;;;9.70;82.10;;;;;;6260182;28;20235;-69
2021/04/04 10:09:05;;;;;;;1.87;1.50;;;9.70;79.60;;;;;;6258317;28;20318;-69
2021/04/04 10:12:07;;;;;;;2.17;1.90;;;10.00;81.40;;;;;;6256439;28;20217;-69
2021/04/04 10:15:10;;;;;;;2.10;1.90;;;10.30;72.60;;;;;;6254743;28;20220;-70
2021/04/04 10:18:13;;;;;;;2.13;1.80;;;10.40;72.10;;;;;;6232049;28;20666;-69
2021/04/04 10:21:15;;;;;;;2.00;1.77;;;10.60;73.90;;;;;;6232062;28;20205;-69
2021/04/04 10:24:27;;;;;;;2.10;1.90;;;11.10;74.40;;;;;;6233915;28;20209;-69
2021/04/04 10:27:30;;;;;;;1.43;1.33;;;11.60;66.70;;;;;;6231969;28;20245;-69
2021/04/04 10:30:34;;;;;;;3.17;1.90;;;11.50;61.40;;;;;;6232276;28;20233;-69
2021/04/04 10:33:36;;;;;;;1.87;1.50;;;10.90;59.40;;;;;;6234456;28;20232;-69
2021/04/04 10:37:03;;;;;;;2.23;1.77;;;10.20;59.20;;;;;;6231848;28;20222;-69
2021/04/04 10:40:11;;;;;;;2.13;1.70;;;9.80;59.80;;;;;;6232546;28;20230;-69
2021/04/04 10:43:15;;;;;;;1.77;1.37;;;9.90;64.60;;;;;;6232979;28;20661;-69
2021/04/04 10:46:17;;;;;;;2.03;1.60;;;10.40;65.80;;;;;;6247615;28;20234;-69
2021/04/04 10:49:20;;;;;;;1.70;1.30;;;10.60;62.20;;;;;;6258335;28;20323;-69
2021/04/04 10:52:23;;;;;;;1.67;1.27;;;10.50;57.40;;;;;;6256032;28;20264;-69
2021/04/04 10:55:26;;;;;;;2.20;1.40;;;10.20;58.60;;;;;;6257189;28;20326;-69
2021/04/04 10:58:28;;;;;;;1.93;1.60;;;10.20;59.40;;;;;;6257280;28;20236;-69
2021/04/04 11:01:31;;;;;;;2.80;1.60;;;10.00;61.40;;;;;;6258050;28;20737;-69
2021/04/04 11:04:33;;;;;;;2.10;1.37;;;9.80;61.90;;;;;;6256754;28;20238;-69
2021/04/04 11:07:36;;;;;;;2.37;1.30;;;9.60;58.30;;;;;;6257680;28;20323;-69
2021/04/04 11:10:37;;;;;;;1.40;1.23;;;9.70;61.00;;;;;;6254315;28;20608;-69
2021/04/04 11:13:43;;;;;;;2.37;1.50;;;10.30;59.60;;;;;;6255870;28;20230;-69
2021/04/04 11:16:47;;;;;;;1.40;1.30;;;10.60;57.50;;;;;;6257472;28;20245;-69
2021/04/04 11:19:51;;;;;;;1.90;1.20;;;10.80;57.10;;;;;;6256712;28;20234;-69
2021/04/04 11:22:54;;;;;;;1.87;1.17;;;10.70;55.60;;;;;;6257425;28;20228;-69
2021/04/04 11:25:56;;;;;;;1.43;1.33;;;10.50;55.10;;;;;;6257476;28;20261;-69
2021/04/04 11:29:08;;;;;;;1.47;1.10;;;10.50;56.70;;;;;;6254691;28;20241;-69
2021/04/04 11:32:17;;;;;;;1.90;1.73;;;10.40;56.80;;;;;;6255288;28;20234;-69
2021/04/04 11:35:19;;;;;;;1.80;1.23;;;10.30;57.40;;;;;;6260551;28;20312;-69
2021/04/04 11:38:21;;;;;;;2.67;1.30;;;10.20;56.70;;;;;;6261082;28;20233;-69
2021/04/04 11:41:27;;;;;;;2.10;1.20;;;10.00;56.00;;;;;;6237965;28;20314;-69
2021/04/04 11:44:41;;;;;;;1.53;1.20;;;9.80;57.80;;;;;;6257003;28;20230;-69
2021/04/04 11:47:43;;;;;;;2.20;0.97;;;9.60;58.20;;;;;;6254238;28;20230;-69
2021/04/04 11:50:45;;;;;;;2.23;1.30;;;9.60;58.10;;;;;;6256093;28;20331;-69
2021/04/04 11:53:48;;;;;;;2.03;1.50;;;9.50;57.90;;;;;;6255047;28;20322;-69
2021/04/04 11:56:50;;;;;;;2.60;1.53;;;9.40;58.30;;;;;;6257599;28;20243;-69
2021/04/04 12:00:01;;;;;;;2.83;1.60;;;9.50;59.30;;;;;;6257510;28;20763;-69
2021/04/04 12:03:06;;;;;;;2.17;1.63;;;9.60;60.10;;;;;;6255375;28;20614;-69
2021/04/04 12:06:14;;;;;;;2.17;1.33;;;9.70;59.20;;;;;;6254949;28;20662;-69
2021/04/04 12:09:16;;;;;;;2.47;1.40;;;10.40;58.70;;;;;;6255750;28;20378;-69
2021/04/04 12:12:18;;;;;;;2.07;1.63;;;11.40;57.50;;;;;;6256533;28;20254;-69
2021/04/04 12:15:23;;;;;;;3.10;1.63;;;11.80;56.40;;;;;;6254416;28;20222;-69
2021/04/04 12:18:24;;;;;;;2.50;1.33;;;11.40;52.90;;;;;;6255142;28;20740;-69
2021/04/04 12:21:26;;;;;;;2.07;1.30;;;10.90;54.10;;;;;;6256027;28;20218;-69
2021/04/04 12:24:53;;;;;;;1.50;1.10;;;10.60;55.80;;;;;;6257234;28;20629;-69
2021/04/04 12:27:59;;;;;;;3.07;1.47;;;10.20;56.80;;;;;;6259445;28;20312;-69
2021/04/04 12:31:01;;;;;;;1.50;1.33;;;10.00;56.60;;;;;;6260279;28;20237;-69
2021/04/04 12:34:04;;;;;;;1.60;1.50;;;9.70;56.90;;;;;;6259322;28;20222;-69
2021/04/04 12:37:18;;;;;;;1.60;1.30;;;9.50;57.70;;;;;;6260969;28;20219;-69
2021/04/04 12:40:25;;;;;;;1.67;1.37;;;9.60;57.90;;;;;;6259914;28;20237;-69
2021/04/04 12:43:28;;;;;;;1.83;1.50;;;9.70;57.30;;;;;;6258839;28;20236;-69
2021/04/04 12:46:31;;;;;;;1.60;1.30;;;9.70;56.50;;;;;;6259779;28;20266;-69
2021/04/04 12:49:34;;;;;;;3.07;1.63;;;9.80;56.90;;;;;;6260033;28;20608;-69
2021/04/04 12:52:41;;;;;;;1.27;1.17;;;9.90;56.60;;;;;;6259515;28;20257;-69
2021/04/04 12:55:44;;;;;;;1.40;1.30;;;10.10;57.10;;;;;;6261322;28;20348;-69
2021/04/04 12:58:46;;;;;;;1.73;1.20;;;10.30;56.40;;;;;;6261898;28;20713;-69
2021/04/04 13:01:48;;;;;;;1.80;1.30;;;10.60;56.30;;;;;;6259261;28;20229;-69
2021/04/04 13:04:56;;;;;;;1.77;1.40;;;10.80;56.30;;;;;;6260425;28;20230;-69
2021/04/04 13:07:58;;;;;;;2.17;1.50;;;11.00;55.20;;;;;;6259894;28;20234;-69
2021/04/04 13:11:07;;;;;;;1.70;1.20;;;11.00;53.50;;;;;;6258594;28;20264;-69
2021/04/04 13:14:13;;;;;;;1.50;1.23;;;11.10;55.40;;;;;;6261251;28;20237;-69
2021/04/04 13:17:15;;;;;;;1.57;1.10;;;11.20;53.70;;;;;;6260742;28;20264;-69
2021/04/04 13:20:17;;;;;;;1.23;1.13;;;11.00;53.80;;;;;;6258864;28;20236;-69
2021/04/04 13:23:19;;;;;;;1.60;1.23;;;11.00;54.00;;;;;;6259591;28;20423;-69
2021/04/04 13:26:33;;;;;;;3.33;1.13;;;11.00;53.80;;;;;;6260196;28;20232;-69
2021/04/04 13:29:40;;;;;;;1.83;1.10;;;10.90;53.30;;;;;;6259006;28;20338;-69
2021/04/04 13:32:47;;;;;;;2.57;1.20;;;10.70;52.60;;;;;;6258776;28;20227;-69
2021/04/04 13:35:48;;;;;;;1.43;1.10;;;10.70;52.60;;;;;;6258924;28;20226;-69
2021/04/04 13:38:52;;;;;;;1.40;1.20;;;10.60;53.40;;;;;;6258644;28;20441;-69
2021/04/04 13:41:55;;;;;;;1.70;1.20;;;10.50;53.50;;;;;;6257664;28;20703;-69
2021/04/04 13:45:53;;;;;;;1.47;1.00;;;10.40;53.40;;;;;;6260322;28;20693;-69
2021/04/04 13:48:58;;;;;;;1.37;1.27;;;10.30;53.40;;;;;;6256115;28;20230;-69
2021/04/04 13:52:14;;;;;;;1.20;1.03;;;10.30;53.10;;;;;;6239863;28;20230;-69
2021/04/04 13:55:26;;;;;;;2.73;1.27;;;10.20;54.50;;;;;;6255912;28;20237;-69
2021/04/04 13:58:31;;;;;;;1.77;1.10;;;10.10;54.50;;;;;;6240878;28;20221;-69
2021/04/04 14:01:34;;;;;;;1.77;1.30;;;10.10;55.00;;;;;;6256365;28;20623;-69
2021/04/04 14:04:37;;;;;;;1.50;1.10;;;10.00;53.60;;;;;;6256213;28;20240;-69
2021/04/04 14:07:39;;;;;;;1.27;1.07;;;10.00;54.20;;;;;;6255531;28;20328;-69
2021/04/04 14:10:41;;;;;;;2.73;1.37;;;10.00;55.10;;;;;;6214491;28;20231;-69
2021/04/04 14:13:44;;;;;;;1.90;1.20;;;10.00;54.00;;;;;;6231361;28;20241;-69
2021/04/04 14:16:46;;;;;;;1.20;1.10;;;10.40;53.10;;;;;;6228406;28;20236;-69
2021/04/04 14:19:47;;;;;;;4.20;1.00;;;10.40;52.70;;;;;;6256762;28;20237;-69
2021/04/04 14:22:51;;;;;;;2.40;1.30;;;10.20;52.50;;;;;;6243252;28;20234;-69
2021/04/04 14:25:53;;;;;;;2.13;1.20;;;10.10;53.40;;;;;;6233366;28;20230;-69
2021/04/04 14:28:55;;;;;;;2.03;1.00;;;10.00;53.80;;;;;;6232730;28;20231;-69
2021/04/04 14:31:57;;;;;;;2.03;1.23;;;9.80;53.70;;;;;;6232687;28;20253;-69
2021/04/04 14:34:59;;;;;;;2.10;1.07;;;9.70;53.80;;;;;;6233251;28;20239;-69
2021/04/04 14:38:01;;;;;;;2.27;1.10;;;9.60;54.50;;;;;;6233107;28;20362;-69
2021/04/04 14:41:04;;;;;;;1.50;1.10;;;9.70;52.70;;;;;;6234436;28;20232;-69
2021/04/04 14:44:24;;;;;;;1.87;1.30;;;9.70;53.80;;;;;;6238170;28;20308;-69
2021/04/04 14:47:26;;;;;;;1.40;1.10;;;9.60;53.90;;;;;;6254788;28;20261;-69
2021/04/04 14:50:28;;;;;;;1.40;1.03;;;10.60;53.00;;;;;;6258493;28;20264;-69
2021/04/04 14:53:31;;;;;;;1.83;1.13;;;12.00;49.90;;;;;;6238993;28;20226;-69
2021/04/04 14:56:42;;;;;;;2.57;1.23;;;12.60;49.10;;;;;;6258333;28;20254;-69
2021/04/04 14:59:44;;;;;;;1.23;0.83;;;13.30;47.30;;;;;;6255810;28;20307;-69
2021/04/04 15:02:46;;;;;;;1.57;0.90;;;13.10;47.00;;;;;;6257159;28;20317;-69
2021/04/04 15:05:49;;;;;;;1.83;0.90;;;13.30;46.50;;;;;;6258023;28;20230;-69
2021/04/04 15:08:51;;;;;;;1.47;0.90;;;14.40;45.20;;;;;;6256922;28;20765;-69
2021/04/04 15:11:53;;;;;;;1.37;0.90;;;15.80;43.00;;;;;;6255299;28;20231;-69
2021/04/04 15:14:59;;;;;;;3.37;1.10;;;15.80;41.20;;;;;;6256260;28;20227;-69
2021/04/04 15:18:01;;;;;;;1.13;0.97;;;14.60;41.60;;;;;;6257563;28;20716;-69
2021/04/04 15:21:04;;;;;;;2.07;1.07;;;13.50;44.00;;;;;;6257939;28;20298;-69
2021/04/04 15:24:06;;;;;;;1.70;1.03;;;12.50;45.00;;;;;;6256708;28;20207;-69
2021/04/04 15:27:08;;;;;;;1.93;0.90;;;11.70;46.70;;;;;;6256253;28;20250;-69
2021/04/04 15:30:27;;;;;;;1.53;1.17;;;11.20;47.20;;;;;;6254196;28;20237;-69
2021/04/04 15:33:29;;;;;;;2.70;1.07;;;10.70;47.30;;;;;;6256705;28;20223;-69
2021/04/04 15:36:31;;;;;;;0.87;0.80;;;10.40;48.40;;;;;;6256513;28;20232;-69
2021/04/04 15:39:34;;;;;;;1.10;0.90;;;10.10;48.90;;;;;;6257119;28;20233;-69
2021/04/04 15:42:36;;;;;;;0.70;0.70;;;10.00;49.00;;;;;;6258743;28;20220;-69
2021/04/04 15:45:40;;;;;;;1.50;0.83;;;9.90;49.20;;;;;;6243209;28;20225;-69
2021/04/04 15:48:42;;;;;;;1.40;0.87;;;9.90;49.20;;;;;;6260501;28;20626;-69
2021/04/04 15:51:44;;;;;;;2.30;1.10;;;9.80;49.50;;;;;;6254922;28;20232;-69
2021/04/04 15:54:46;;;;;;;1.67;1.10;;;9.90;50.00;;;;;;6255983;28;20228;-69
2021/04/04 15:57:49;;;;;;;2.07;1.00;;;9.80;50.10;;;;;;6254923;28;20273;-69
2021/04/04 16:00:51;;;;;;;1.43;1.10;;;9.60;50.80;;;;;;6256164;28;20230;-69
2021/04/04 16:03:53;;;;;;;1.60;1.03;;;9.40;51.10;;;;;;6256133;28;20236;-69
2021/04/04 16:06:55;;;;;;;1.13;1.03;;;9.30;50.20;;;;;;6254501;28;20220;-69
2021/04/04 16:10:02;;;;;;;1.70;1.20;;;9.20;51.20;;;;;;6257076;28;20238;-69
2021/04/04 16:13:05;;;;;;;1.17;0.90;;;9.10;51.30;;;;;;6255929;28;20219;-69
2021/04/04 16:16:08;;;;;;;1.37;1.10;;;9.00;51.00;;;;;;6254850;28;20299;-69
2021/04/04 16:19:09;;;;;;;1.10;0.90;;;9.00;51.10;;;;;;6255369;28;20299;-69
2021/04/04 16:22:13;;;;;;;1.37;1.00;;;8.90;51.10;;;;;;6254826;28;20674;-69
2021/04/04 16:25:15;;;;;;;1.60;1.20;;;8.70;50.80;;;;;;6256037;28;20230;-69